Time;durP1;ratioP1;P1;durP2;ratioP2;P2;SDS_P1;SDS_P2;PMS_P1;PMS_P2;Temp;Humidity;BMP_temperature;BMP_pressure;BME280_temperature;BME280_humidity;BME280_pressure;Samples;Min_cycle;Max_cycle;Signal;HPM_P1;HPM_P2
2021/04/07 00:00:59;;;;;;;4.53;2.37;;;3.00;99.90;;;;;;4998130;28;21119;-64
2021/04/07 00:03:30;;;;;;;7.57;2.60;;;3.10;99.90;;;;;;5002131;28;20658;-64
2021/04/07 00:05:56;;;;;;;5.10;2.40;;;3.00;99.90;;;;;;5002408;28;20594;-64
2021/04/07 00:08:31;;;;;;;7.63;2.70;;;3.00;99.90;;;;;;5002848;28;20696;-64
2021/04/07 00:10:58;;;;;;;9.33;2.37;;;3.00;99.90;;;;;;4999046;28;20263;-64
2021/04/07 00:13:29;;;;;;;5.67;2.20;;;3.00;99.90;;;;;;5001900;28;20639;-64
2021/04/07 00:15:55;;;;;;;7.07;2.27;;;3.10;99.90;;;;;;5001437;28;20730;-63
2021/04/07 00:18:22;;;;;;;4.97;2.10;;;3.10;99.90;;;;;;4997119;28;20625;-64
2021/04/07 00:20:53;;;;;;;6.00;2.00;;;3.10;99.90;;;;;;4999183;28;20235;-64
2021/04/07 00:23:44;;;;;;;8.07;2.20;;;3.00;99.90;;;;;;5013185;28;20634;-64
2021/04/07 00:29:02;;;;;;;3.93;2.03;;;3.00;99.90;;;;;;5011927;28;20835;-64
2021/04/07 00:31:28;;;;;;;5.93;2.10;;;3.00;99.90;;;;;;5000750;28;20797;-64
2021/04/07 00:33:56;;;;;;;5.00;2.30;;;3.00;99.90;;;;;;5003978;28;20618;-64
2021/04/07 00:36:29;;;;;;;5.23;2.10;;;3.00;99.90;;;;;;4999307;28;21155;-64
2021/04/07 00:38:58;;;;;;;5.87;2.30;;;3.00;99.90;;;;;;4999936;28;20635;-63
2021/04/07 00:41:25;;;;;;;4.40;1.70;;;3.00;99.90;;;;;;4998607;28;20737;-64
2021/04/07 00:44:07;;;;;;;7.23;2.20;;;3.00;99.90;;;;;;4998962;28;20680;-64
2021/04/07 00:46:45;;;;;;;3.70;2.43;;;3.00;99.90;;;;;;4996797;28;20691;-64
2021/04/07 00:49:11;;;;;;;8.33;2.40;;;2.90;99.90;;;;;;5002825;28;20654;-64
2021/04/07 00:51:54;;;;;;;;;;;;;;;;;;;;;
2021/04/07 00:54:20;;;;;;;5.77;2.50;;;2.90;99.90;;;;;;5000398;28;20192;-64
2021/04/07 00:56:49;;;;;;;9.50;2.80;;;2.90;99.90;;;;;;4998605;28;20990;-63
2021/04/07 00:59:16;;;;;;;5.13;2.30;;;2.90;99.90;;;;;;5003140;28;20625;-63
2021/04/07 01:01:47;;;;;;;11.97;2.23;;;2.90;99.90;;;;;;4999663;28;20666;-64
2021/04/07 01:04:15;;;;;;;4.20;1.87;;;2.90;99.90;;;;;;4988498;28;21339;-64
2021/04/07 01:06:48;;;;;;;6.57;1.90;;;2.90;99.90;;;;;;4998929;28;20625;-63
2021/04/07 01:09:17;;;;;;;5.10;2.20;;;3.00;99.90;;;;;;4993661;28;21113;-65
2021/04/07 01:11:50;;;;;;;5.00;2.47;;;2.90;99.90;;;;;;4999498;28;21506;-64
2021/04/07 01:14:29;;;;;;;5.20;2.10;;;2.90;99.90;;;;;;4996632;28;20683;-63
2021/04/07 01:17:07;;;;;;;4.27;1.47;;;2.80;99.90;;;;;;4997316;28;20626;-64
2021/04/07 01:19:34;;;;;;;3.47;1.70;;;2.80;99.90;;;;;;4997299;28;21290;-64
2021/04/07 01:22:13;;;;;;;5.70;1.90;;;2.80;99.90;;;;;;4998019;28;20756;-64
2021/04/07 01:24:38;;;;;;;6.43;2.03;;;2.80;99.90;;;;;;4999257;28;24265;-64
2021/04/07 01:27:08;;;;;;;7.33;2.50;;;2.70;99.90;;;;;;4997837;28;20630;-64
2021/04/07 01:29:36;;;;;;;9.40;2.53;;;2.80;99.90;;;;;;5008114;28;20297;-63
2021/04/07 01:32:05;;;;;;;6.03;2.30;;;2.70;99.90;;;;;;4997351;28;20642;-65
2021/04/07 01:34:36;;;;;;;7.77;2.00;;;2.70;99.90;;;;;;4996409;28;20614;-64
2021/04/07 01:37:06;;;;;;;8.40;2.50;;;2.70;99.90;;;;;;4994955;28;21136;-63
2021/04/07 01:39:38;;;;;;;6.60;2.00;;;2.70;99.90;;;;;;4999329;28;20719;-64
2021/04/07 01:42:35;;;;;;;17.43;3.60;;;2.60;99.90;;;;;;4994930;28;20666;-64
2021/04/07 01:45:06;;;;;;;5.13;1.70;;;2.70;99.90;;;;;;4991503;28;20672;-64
2021/04/07 01:47:50;;;;;;;6.53;3.10;;;2.80;99.90;;;;;;4993992;28;20618;-64
2021/04/07 01:50:16;;;;;;;6.33;2.40;;;2.80;99.90;;;;;;4989316;28;20721;-64
2021/04/07 01:52:47;;;;;;;4.47;1.83;;;2.70;99.90;;;;;;4995626;28;20635;-63
2021/04/07 01:55:25;;;;;;;4.60;2.23;;;2.70;99.90;;;;;;4988919;28;20676;-64
2021/04/07 01:58:03;;;;;;;7.67;2.53;;;2.70;99.90;;;;;;4998144;28;20626;-61
2021/04/07 02:00:31;;;;;;;4.23;2.10;;;2.70;99.90;;;;;;4999811;28;21388;-62
2021/04/07 02:03:01;;;;;;;5.20;1.93;;;2.70;99.90;;;;;;4996135;28;21053;-61
2021/04/07 02:05:27;;;;;;;7.00;2.00;;;2.70;99.90;;;;;;4996217;28;20618;-60
2021/04/07 02:07:54;;;;;;;6.63;2.00;;;2.70;99.90;;;;;;4997912;28;21488;-63
2021/04/07 02:10:37;;;;;;;7.20;2.17;;;2.70;99.90;;;;;;5001328;28;20254;-60
2021/04/07 02:13:08;;;;;;;5.37;2.20;;;2.70;99.90;;;;;;4998871;28;20670;-60
2021/04/07 02:15:33;;;;;;;6.90;2.13;;;2.70;99.90;;;;;;4997014;28;20705;-60
2021/04/07 02:18:04;;;;;;;6.03;2.10;;;2.70;99.90;;;;;;5000584;28;20733;-61
2021/04/07 02:20:37;;;;;;;7.90;2.03;;;2.60;99.90;;;;;;4994993;28;20212;-61
2021/04/07 02:23:18;;;;;;;;;;;;;;;;;;;;;
2021/04/07 02:25:46;;;;;;;6.73;1.80;;;2.70;99.90;;;;;;4997842;28;21434;-61
2021/04/07 02:28:19;;;;;;;7.07;1.70;;;2.70;99.90;;;;;;5000232;28;21040;-61
2021/04/07 02:30:52;;;;;;;9.17;1.90;;;2.60;99.90;;;;;;4999171;28;21510;-62
2021/04/07 02:33:18;;;;;;;4.50;2.17;;;2.70;99.90;;;;;;4996719;28;20650;-62
2021/04/07 02:35:47;;;;;;;8.27;2.07;;;2.70;99.90;;;;;;5008723;28;21191;-60
2021/04/07 02:38:15;;;;;;;8.73;2.63;;;2.80;99.90;;;;;;5012149;28;20595;-61
2021/04/07 02:40:55;;;;;;;9.10;2.33;;;2.80;99.90;;;;;;5031729;28;21996;-61
2021/04/07 02:43:26;;;;;;;5.23;2.37;;;2.80;99.90;;;;;;5014538;28;20868;-61
2021/04/07 02:46:11;;;;;;;10.20;2.77;;;2.80;99.90;;;;;;5017676;28;20602;-61
2021/04/07 02:48:50;;;;;;;5.03;1.87;;;2.80;99.90;;;;;;5010520;28;20629;-61
2021/04/07 02:51:25;;;;;;;9.13;2.87;;;2.90;99.90;;;;;;5010791;28;20654;-61
2021/04/07 02:53:53;;;;;;;5.50;2.13;;;2.90;99.90;;;;;;5005994;28;20642;-61
2021/04/07 02:56:21;;;;;;;4.63;1.83;;;2.90;99.90;;;;;;5010151;28;20625;-60
2021/04/07 02:58:52;;;;;;;4.10;1.90;;;2.80;99.90;;;;;;5008406;28;20772;-61
2021/04/07 03:01:25;;;;;;;7.40;2.83;;;2.90;99.90;;;;;;5021435;28;20661;-61
2021/04/07 03:03:53;;;;;;;7.63;2.50;;;2.90;99.90;;;;;;5004252;28;21219;-61
2021/04/07 03:06:21;;;;;;;6.93;2.43;;;2.90;99.90;;;;;;5006020;28;20634;-60
2021/04/07 03:08:51;;;;;;;7.13;2.30;;;2.90;99.90;;;;;;5006446;28;20654;-61
2021/04/07 03:11:27;;;;;;;7.60;2.23;;;2.80;99.90;;;;;;5004834;28;20661;-61
2021/04/07 03:14:25;;;;;;;;;;;;;;;;;;;;;
2021/04/07 03:17:06;;;;;;;10.27;2.00;;;2.80;99.90;;;;;;5007570;28;20821;-61
2021/04/07 03:19:38;;;;;;;8.80;2.07;;;2.80;99.90;;;;;;5000553;28;22147;-61
2021/04/07 03:22:05;;;;;;;5.97;2.10;;;2.90;99.90;;;;;;4999518;28;20755;-60
2021/04/07 03:24:32;;;;;;;6.83;2.07;;;2.90;99.90;;;;;;5000199;28;21224;-61
2021/04/07 03:27:00;;;;;;;5.90;2.20;;;2.80;99.90;;;;;;5001354;28;21349;-63
2021/04/07 03:29:34;;;;;;;8.60;1.90;;;2.70;99.90;;;;;;5000077;28;20738;-63
2021/04/07 03:32:02;;;;;;;6.77;2.40;;;2.70;99.90;;;;;;5009969;28;23003;-64
2021/04/07 03:34:30;;;;;;;5.43;2.50;;;2.70;99.90;;;;;;5021825;28;21076;-67
2021/04/07 03:36:58;;;;;;;5.90;1.80;;;2.80;99.90;;;;;;5018628;28;21197;-63
2021/04/07 03:39:24;;;;;;;7.23;2.17;;;2.70;99.90;;;;;;5002789;28;20642;-63
2021/04/07 03:41:55;;;;;;;6.77;1.90;;;2.70;99.90;;;;;;4996795;28;21723;-65
2021/04/07 03:44:26;;;;;;;5.37;2.40;;;2.70;99.90;;;;;;5015096;28;20195;-63
2021/04/07 03:46:58;;;;;;;5.77;2.00;;;2.60;99.90;;;;;;4997310;28;20594;-63
2021/04/07 03:49:43;;;;;;;;;;;;;;;;;;;;;
2021/04/07 03:52:12;;;;;;;6.80;2.73;;;2.60;99.90;;;;;;5000505;28;22544;-63
2021/04/07 03:54:37;;;;;;;4.90;2.10;;;2.70;99.90;;;;;;5000192;28;21410;-63
2021/04/07 03:57:05;;;;;;;7.50;2.33;;;2.50;99.90;;;;;;5002012;28;20726;-67
2021/04/07 03:59:34;;;;;;;6.23;2.80;;;2.40;99.90;;;;;;5001308;28;20219;-63
2021/04/07 04:02:01;;;;;;;9.50;2.60;;;2.50;99.90;;;;;;4985225;28;20867;-63
2021/04/07 04:04:27;;;;;;;5.17;2.30;;;2.40;99.90;;;;;;5002768;28;20626;-63
2021/04/07 04:06:55;;;;;;;6.57;2.20;;;2.40;99.90;;;;;;5001488;28;22618;-63
2021/04/07 04:09:25;;;;;;;5.30;2.60;;;2.30;99.90;;;;;;5002188;28;20316;-64
2021/04/07 04:11:56;;;;;;;6.57;2.37;;;2.30;99.90;;;;;;4994705;28;20650;-64
2021/04/07 04:14:29;;;;;;;3.70;2.20;;;2.20;99.90;;;;;;4999772;28;20645;-64
2021/04/07 04:17:00;;;;;;;10.40;2.77;;;2.20;99.90;;;;;;4996579;28;20583;-64
2021/04/07 04:19:28;;;;;;;9.40;2.00;;;2.30;99.90;;;;;;4999303;28;21235;-64
2021/04/07 04:21:56;;;;;;;5.57;2.13;;;2.30;99.90;;;;;;5000700;28;20810;-64
2021/04/07 04:24:24;;;;;;;2.87;1.70;;;2.40;99.90;;;;;;5001478;28;20622;-63
2021/04/07 04:26:55;;;;;;;5.47;2.40;;;2.30;99.90;;;;;;5000969;28;20651;-64
2021/04/07 04:29:28;;;;;;;7.80;2.20;;;2.10;99.90;;;;;;5001894;28;20709;-64
2021/04/07 04:32:05;;;;;;;6.83;1.97;;;2.30;99.90;;;;;;4996658;28;20657;-64
2021/04/07 04:34:33;;;;;;;5.80;2.10;;;2.30;99.90;;;;;;5002270;28;21261;-64
2021/04/07 04:37:04;;;;;;;7.67;2.30;;;2.30;99.90;;;;;;5001622;28;20625;-64
2021/04/07 04:39:39;;;;;;;9.10;3.17;;;2.20;99.90;;;;;;5006985;28;20654;-64
2021/04/07 04:42:09;;;;;;;6.77;2.00;;;2.20;99.90;;;;;;5002719;28;21495;-65
2021/04/07 04:44:35;;;;;;;7.87;2.13;;;2.10;99.90;;;;;;5011290;28;20623;-61
2021/04/07 04:47:03;;;;;;;9.30;3.20;;;2.10;99.90;;;;;;5004579;28;21196;-61
2021/04/07 04:49:31;;;;;;;8.03;2.83;;;2.10;99.90;;;;;;4996061;28;21068;-60
2021/04/07 04:52:20;;;;;;;4.70;2.17;;;2.00;99.90;;;;;;4995139;28;20915;-61
2021/04/07 04:54:49;;;;;;;4.13;2.33;;;2.10;99.90;;;;;;5003635;28;21539;-61
2021/04/07 04:57:15;;;;;;;6.20;2.97;;;2.10;99.90;;;;;;5004375;28;21230;-61
2021/04/07 04:59:49;;;;;;;5.10;2.30;;;2.10;99.90;;;;;;5005126;28;20658;-62
2021/04/07 05:02:17;;;;;;;7.53;2.23;;;2.10;99.90;;;;;;4997006;28;20665;-61
2021/04/07 05:04:45;;;;;;;5.13;2.73;;;2.10;99.90;;;;;;4998432;28;20619;-61
2021/04/07 05:07:13;;;;;;;8.67;2.70;;;2.10;99.90;;;;;;4999671;28;20667;-62
2021/04/07 05:09:38;;;;;;;7.13;2.43;;;2.10;99.90;;;;;;4997307;28;21268;-63
2021/04/07 05:12:04;;;;;;;9.47;2.63;;;2.10;99.90;;;;;;4990274;28;20638;-61
2021/04/07 05:14:30;;;;;;;6.40;2.80;;;2.20;99.90;;;;;;4990571;28;20196;-61
2021/04/07 05:17:03;;;;;;;6.07;2.87;;;2.10;99.90;;;;;;4999241;28;20615;-61
2021/04/07 05:19:28;;;;;;;5.83;2.97;;;2.10;99.90;;;;;;4998756;28;20270;-62
2021/04/07 05:21:56;;;;;;;7.87;3.53;;;2.00;99.90;;;;;;4987900;28;20687;-61
2021/04/07 05:24:25;;;;;;;8.60;3.70;;;2.10;99.90;;;;;;4980393;28;22394;-59
2021/04/07 05:26:50;;;;;;;7.00;3.73;;;2.20;99.90;;;;;;4979765;28;20611;-61
2021/04/07 05:29:18;;;;;;;12.07;3.80;;;2.20;99.90;;;;;;4972018;28;21675;-61
2021/04/07 05:31:45;;;;;;;6.30;4.10;;;2.30;99.90;;;;;;4980205;28;20831;-64
2021/04/07 05:34:13;;;;;;;12.70;4.53;;;2.20;99.90;;;;;;4999767;28;20599;-60
2021/04/07 05:36:41;;;;;;;6.50;4.00;;;2.20;99.90;;;;;;4996945;28;21418;-60
2021/04/07 05:39:09;;;;;;;7.77;4.20;;;2.30;99.90;;;;;;5001008;28;20719;-62
2021/04/07 05:41:35;;;;;;;6.33;3.80;;;2.30;99.90;;;;;;4981221;28;21133;-61
2021/04/07 05:44:00;;;;;;;5.67;3.80;;;2.30;99.90;;;;;;4984797;28;20626;-61
2021/04/07 05:46:26;;;;;;;9.23;4.60;;;2.30;99.90;;;;;;4979853;28;20191;-60
2021/04/07 05:48:59;;;;;;;7.10;3.90;;;2.30;99.90;;;;;;4969942;28;20211;-61
2021/04/07 05:51:25;;;;;;;7.73;4.00;;;2.30;99.90;;;;;;4987779;28;20619;-60
2021/04/07 05:53:53;;;;;;;5.53;3.60;;;2.40;99.90;;;;;;4985235;28;21211;-60
2021/04/07 05:56:18;;;;;;;7.90;5.80;;;2.40;99.90;;;;;;4984602;28;20481;-64
2021/04/07 05:58:44;;;;;;;8.20;3.83;;;2.30;99.90;;;;;;4996126;28;20618;-61
2021/04/07 06:01:09;;;;;;;7.30;3.70;;;2.40;99.90;;;;;;4983852;28;20979;-61
2021/04/07 06:03:35;;;;;;;5.67;3.67;;;2.40;99.90;;;;;;4986904;28;20374;-61
2021/04/07 06:06:01;;;;;;;6.17;3.20;;;2.50;99.90;;;;;;4971737;28;20837;-61
2021/04/07 06:08:26;;;;;;;5.77;3.77;;;2.50;99.90;;;;;;4982844;28;20211;-60
2021/04/07 06:10:52;;;;;;;7.90;3.70;;;2.50;99.90;;;;;;5008695;28;20243;-61
2021/04/07 06:13:19;;;;;;;4.03;3.60;;;2.50;99.90;;;;;;4985094;28;20230;-61
2021/04/07 06:15:45;;;;;;;6.23;3.60;;;2.50;99.90;;;;;;4984839;28;20626;-62
2021/04/07 06:18:13;;;;;;;5.87;3.60;;;2.60;99.90;;;;;;4985790;28;21404;-60
2021/04/07 06:20:45;;;;;;;8.60;3.60;;;2.50;99.90;;;;;;4987708;28;21120;-60
2021/04/07 06:23:12;;;;;;;6.80;3.67;;;2.50;99.90;;;;;;4989663;28;20648;-61
2021/04/07 06:25:38;;;;;;;4.80;3.20;;;2.50;99.90;;;;;;4990198;28;20604;-61
2021/04/07 06:28:07;;;;;;;7.27;3.10;;;2.50;99.90;;;;;;4989088;28;20615;-60
2021/04/07 06:33:21;;;;;;;5.40;3.43;;;2.60;99.90;;;;;;4998389;28;20935;-61
2021/04/07 06:35:48;;;;;;;5.10;3.33;;;2.60;99.90;;;;;;4990548;28;20618;-61
2021/04/07 06:38:14;;;;;;;6.63;3.97;;;2.60;99.90;;;;;;4998061;28;20709;-61
2021/04/07 06:40:42;;;;;;;8.07;3.90;;;2.60;99.90;;;;;;5001927;28;20650;-61
2021/04/07 06:43:08;;;;;;;4.47;3.20;;;2.60;99.90;;;;;;4987344;28;21137;-61
2021/04/07 06:45:37;;;;;;;4.40;3.50;;;2.80;99.90;;;;;;4999272;28;21333;-61
2021/04/07 06:48:06;;;;;;;4.80;2.90;;;2.80;99.90;;;;;;5000623;28;20623;-61
2021/04/07 06:50:32;;;;;;;6.60;3.43;;;2.70;99.90;;;;;;4985499;28;21027;-61
2021/04/07 06:52:59;;;;;;;5.20;2.97;;;2.70;99.90;;;;;;4989201;28;21254;-61
2021/04/07 06:55:26;;;;;;;6.83;2.97;;;2.70;99.90;;;;;;4984508;28;22201;-61
2021/04/07 06:57:55;;;;;;;5.93;3.37;;;2.70;99.90;;;;;;4990522;28;20614;-61
2021/04/07 07:00:23;;;;;;;5.37;2.53;;;2.60;99.90;;;;;;4986185;28;22059;-61
2021/04/07 07:03:01;;;;;;;6.07;3.00;;;2.60;99.90;;;;;;4998540;28;21220;-61
2021/04/07 07:05:27;;;;;;;6.67;3.30;;;2.60;99.90;;;;;;4987096;28;21379;-61
2021/04/07 07:08:02;;;;;;;5.93;2.90;;;2.60;99.90;;;;;;4985529;28;20654;-61
2021/04/07 07:10:48;;;;;;;8.03;3.67;;;2.60;99.90;;;;;;4985425;28;20650;-59
2021/04/07 07:13:18;;;;;;;5.07;2.63;;;2.60;99.90;;;;;;4997027;28;20657;-60
2021/04/07 07:15:44;;;;;;;6.10;2.50;;;2.70;99.90;;;;;;4990719;28;20615;-61
2021/04/07 07:18:10;;;;;;;5.20;2.57;;;2.70;99.90;;;;;;4989771;28;22715;-61
2021/04/07 07:20:39;;;;;;;4.03;2.80;;;2.70;99.90;;;;;;5005385;28;20770;-61
2021/04/07 07:23:05;;;;;;;4.63;3.00;;;2.70;99.90;;;;;;5000375;28;20212;-61
2021/04/07 07:25:31;;;;;;;4.43;2.80;;;2.80;99.90;;;;;;4992260;28;20780;-64
2021/04/07 07:28:03;;;;;;;4.53;2.90;;;2.80;99.90;;;;;;4988549;28;20702;-64
2021/04/07 07:30:42;;;;;;;7.17;2.97;;;2.70;99.90;;;;;;4990966;28;21782;-62
2021/04/07 07:33:19;;;;;;;7.80;3.13;;;2.70;99.90;;;;;;4997335;28;20740;-63
2021/04/07 07:35:46;;;;;;;4.10;2.37;;;2.80;99.90;;;;;;4986860;28;20648;-64
2021/04/07 07:38:20;;;;;;;3.97;2.60;;;2.80;99.90;;;;;;5002391;28;23866;-63
2021/04/07 07:40:46;;;;;;;4.13;2.50;;;2.90;99.90;;;;;;5005150;28;20646;-63
2021/04/07 07:43:12;;;;;;;3.13;2.60;;;2.90;99.90;;;;;;5005093;28;21397;-66
2021/04/07 07:45:41;;;;;;;4.37;2.80;;;2.90;99.90;;;;;;4999976;28;20192;-63
2021/04/07 07:48:17;;;;;;;4.60;2.67;;;3.00;99.90;;;;;;4996795;28;20192;-64
2021/04/07 07:50:45;;;;;;;3.40;3.00;;;3.00;99.90;;;;;;5015667;28;20772;-63
2021/04/07 07:53:22;;;;;;;5.60;3.00;;;3.10;99.90;;;;;;4996655;28;20718;-63
2021/04/07 07:55:52;;;;;;;3.20;2.90;;;3.00;99.90;;;;;;4978007;28;21414;-63
2021/04/07 07:58:23;;;;;;;9.27;2.90;;;3.10;99.90;;;;;;4971383;28;20770;-63
2021/04/07 08:00:49;;;;;;;3.47;2.50;;;3.30;99.90;;;;;;4968995;28;21096;-61
2021/04/07 08:03:15;;;;;;;4.30;2.33;;;3.20;99.90;;;;;;4971537;28;20646;-61
2021/04/07 08:05:44;;;;;;;4.23;2.73;;;3.20;99.90;;;;;;4972495;28;20650;-61
2021/04/07 08:08:11;;;;;;;2.90;2.23;;;3.30;99.90;;;;;;4971091;28;20746;-62
2021/04/07 08:10:38;;;;;;;4.60;2.80;;;3.30;99.90;;;;;;4972315;28;20654;-61
2021/04/07 08:13:08;;;;;;;3.23;2.80;;;3.40;99.90;;;;;;4971641;28;22082;-62
2021/04/07 08:15:34;;;;;;;2.70;2.40;;;3.40;99.90;;;;;;4974994;28;21375;-61
2021/04/07 08:18:00;;;;;;;4.17;2.53;;;3.50;99.90;;;;;;4967152;28;20766;-61
2021/04/07 08:20:26;;;;;;;2.97;2.67;;;3.50;99.90;;;;;;4970895;28;20300;-60
2021/04/07 08:22:53;;;;;;;5.43;2.30;;;3.40;99.90;;;;;;4965744;28;20643;-61
2021/04/07 08:25:20;;;;;;;3.93;2.50;;;3.40;99.90;;;;;;4969773;28;20619;-60
2021/04/07 08:27:49;;;;;;;3.10;2.50;;;3.40;99.90;;;;;;4972656;28;20623;-60
2021/04/07 08:30:15;;;;;;;3.40;2.43;;;3.40;99.90;;;;;;4965986;28;20737;-61
2021/04/07 08:32:44;;;;;;;4.00;2.50;;;3.40;99.90;;;;;;4964780;28;21259;-60
2021/04/07 08:35:11;;;;;;;3.73;2.80;;;3.50;99.90;;;;;;4968510;28;20608;-61
2021/04/07 08:37:37;;;;;;;2.80;2.53;;;3.60;99.90;;;;;;4968639;28;20623;-60
2021/04/07 08:40:11;;;;;;;5.30;2.37;;;3.60;99.90;;;;;;4962501;28;22775;-61
2021/04/07 08:42:38;;;;;;;4.50;3.00;;;3.50;99.90;;;;;;4969482;28;21179;-61
2021/04/07 08:45:12;;;;;;;3.80;2.23;;;3.40;99.90;;;;;;4966014;28;21292;-61
2021/04/07 08:47:46;;;;;;;2.60;2.40;;;3.50;99.90;;;;;;4966109;28;20645;-62
2021/04/07 08:50:18;;;;;;;3.87;2.50;;;3.50;99.90;;;;;;4959364;28;20672;-61
2021/04/07 08:52:48;;;;;;;4.40;2.80;;;3.60;99.90;;;;;;4967586;28;20635;-61
2021/04/07 08:55:27;;;;;;;3.53;2.70;;;3.60;99.90;;;;;;4967316;28;20618;-62
2021/04/07 08:58:01;;;;;;;3.10;2.80;;;3.60;99.90;;;;;;4993787;28;20689;-65
2021/04/07 09:00:29;;;;;;;4.87;2.33;;;3.60;99.90;;;;;;4962234;28;20920;-62
2021/04/07 09:03:07;;;;;;;3.70;2.50;;;3.60;99.90;;;;;;4964035;28;20978;-62
2021/04/07 09:05:36;;;;;;;2.33;2.13;;;3.70;99.90;;;;;;4968242;28;20634;-60
2021/04/07 09:08:03;;;;;;;3.63;3.10;;;3.70;99.90;;;;;;4972068;28;20635;-62
2021/04/07 09:10:51;;;;;;;2.90;2.40;;;3.70;99.90;;;;;;4966830;28;20650;-60
2021/04/07 09:13:27;;;;;;;3.00;2.60;;;3.70;99.90;;;;;;4964708;28;20871;-61
2021/04/07 09:15:53;;;;;;;2.77;2.57;;;3.70;99.90;;;;;;4961288;28;20698;-61
2021/04/07 09:18:32;;;;;;;3.63;2.97;;;3.70;99.90;;;;;;4964947;28;20624;-59
2021/04/07 09:21:00;;;;;;;5.20;3.10;;;3.80;99.90;;;;;;4960528;28;21125;-66
2021/04/07 09:23:34;;;;;;;3.53;2.87;;;3.90;99.90;;;;;;4980978;28;22903;-61
2021/04/07 09:26:11;;;;;;;3.40;2.67;;;3.90;99.90;;;;;;4989291;28;21076;-61
2021/04/07 09:28:41;;;;;;;2.97;2.67;;;4.00;99.90;;;;;;5015626;28;21404;-60
2021/04/07 09:31:18;;;;;;;3.10;2.50;;;4.00;99.90;;;;;;4988404;28;20664;-61
2021/04/07 09:33:47;;;;;;;3.70;2.77;;;4.00;99.90;;;;;;4999858;28;21243;-61
2021/04/07 09:36:14;;;;;;;3.90;2.67;;;4.00;99.90;;;;;;4991596;28;20606;-61
2021/04/07 09:38:51;;;;;;;2.60;2.40;;;4.00;99.90;;;;;;5001892;28;21373;-61
2021/04/07 09:41:18;;;;;;;3.00;2.57;;;4.00;99.90;;;;;;4981201;28;21072;-62
2021/04/07 09:43:44;;;;;;;4.67;3.33;;;4.00;99.90;;;;;;4993095;28;20745;-62
2021/04/07 09:46:10;;;;;;;3.03;2.70;;;4.00;99.90;;;;;;4984402;28;20622;-62
2021/04/07 09:49:05;;;;;;;4.03;2.90;;;4.10;99.90;;;;;;4990494;28;21136;-62
2021/04/07 09:51:32;;;;;;;3.20;2.90;;;4.10;99.90;;;;;;4990032;28;20338;-62
2021/04/07 09:54:14;;;;;;;3.07;2.77;;;4.10;99.90;;;;;;4984142;28;20620;-61
2021/04/07 09:57:09;;;;;;;3.00;2.70;;;4.10;99.90;;;;;;4984771;28;20630;-60
2021/04/07 09:59:52;;;;;;;6.33;2.97;;;4.20;99.90;;;;;;4991856;28;21318;-61
2021/04/07 10:02:24;;;;;;;3.63;2.57;;;4.20;99.90;;;;;;4991856;28;20643;-60
2021/04/07 10:04:51;;;;;;;4.10;2.93;;;4.40;99.90;;;;;;5010790;28;20622;-61
2021/04/07 10:07:22;;;;;;;4.60;3.07;;;4.40;99.90;;;;;;4996031;28;20618;-60
2021/04/07 10:09:56;;;;;;;4.57;2.90;;;4.30;99.90;;;;;;5005716;28;20662;-59
2021/04/07 10:12:26;;;;;;;2.83;2.53;;;4.30;99.90;;;;;;5005699;28;21178;-60
2021/04/07 10:15:00;;;;;;;3.23;2.70;;;4.40;99.90;;;;;;5010223;28;20621;-61
2021/04/07 10:17:33;;;;;;;3.30;3.00;;;4.60;99.90;;;;;;4995713;28;20598;-61
2021/04/07 10:20:15;;;;;;;3.03;2.70;;;4.60;99.90;;;;;;5004216;28;20669;-60
2021/04/07 10:22:42;;;;;;;4.47;2.70;;;4.80;99.90;;;;;;4987928;28;20638;-60
2021/04/07 10:25:15;;;;;;;2.50;2.30;;;5.00;99.90;;;;;;4991017;28;20615;-60
2021/04/07 10:27:42;;;;;;;3.63;2.73;;;5.00;99.90;;;;;;4990964;28;20591;-60
2021/04/07 10:30:11;;;;;;;2.87;2.67;;;5.10;99.90;;;;;;4984467;28;20750;-61
2021/04/07 10:32:42;;;;;;;2.80;2.43;;;5.10;99.90;;;;;;4996782;28;20688;-61
2021/04/07 10:35:31;;;;;;;3.50;2.73;;;5.20;99.90;;;;;;4982832;28;21831;-62
2021/04/07 10:37:59;;;;;;;2.80;2.60;;;5.40;99.90;;;;;;4980707;28;21249;-61
2021/04/07 10:40:27;;;;;;;3.50;2.60;;;5.60;99.90;;;;;;4986537;28;21114;-62
2021/04/07 10:42:53;;;;;;;3.33;2.83;;;5.70;99.90;;;;;;4982872;28;20723;-62
2021/04/07 10:45:20;;;;;;;4.00;3.23;;;5.80;99.90;;;;;;4989191;28;21139;-62
2021/04/07 10:47:47;;;;;;;2.70;2.50;;;5.90;99.90;;;;;;4990440;28;20789;-61
2021/04/07 10:50:13;;;;;;;4.83;2.43;;;6.00;99.90;;;;;;4989108;28;20670;-61
2021/04/07 10:52:41;;;;;;;2.80;2.60;;;6.10;99.90;;;;;;4980883;28;21144;-62
2021/04/07 10:55:11;;;;;;;3.00;2.60;;;6.20;99.90;;;;;;5006080;28;20739;-62
2021/04/07 10:57:39;;;;;;;2.80;2.60;;;6.20;99.90;;;;;;4992447;28;20638;-61
2021/04/07 11:00:10;;;;;;;3.00;2.47;;;6.20;99.90;;;;;;4989056;28;20669;-61
2021/04/07 11:02:44;;;;;;;3.23;2.37;;;6.20;99.90;;;;;;4990164;28;20654;-62
2021/04/07 11:05:18;;;;;;;4.57;2.43;;;6.30;99.90;;;;;;4981743;28;20621;-62
2021/04/07 11:07:44;;;;;;;3.33;2.80;;;6.40;99.90;;;;;;4995441;28;21204;-63
2021/04/07 11:10:15;;;;;;;3.97;2.90;;;6.50;99.90;;;;;;4991390;28;21761;-62
2021/04/07 11:12:44;;;;;;;4.53;2.60;;;6.60;99.90;;;;;;4988453;28;21874;-61
2021/04/07 11:15:14;;;;;;;3.80;3.03;;;6.60;99.90;;;;;;4986559;28;20986;-61
2021/04/07 11:17:53;;;;;;;3.67;2.60;;;6.70;99.90;;;;;;4986115;28;20658;-62
2021/04/07 11:20:20;;;;;;;2.63;2.43;;;6.70;99.90;;;;;;4989282;28;20658;-62
2021/04/07 11:22:46;;;;;;;3.70;2.60;;;6.60;99.90;;;;;;4986932;28;20646;-62
2021/04/07 11:25:12;;;;;;;3.70;2.53;;;6.60;99.90;;;;;;4983154;28;20665;-63
2021/04/07 11:27:38;;;;;;;3.73;3.03;;;6.60;99.90;;;;;;4982983;28;20192;-62
2021/04/07 11:30:05;;;;;;;3.07;2.80;;;6.70;99.90;;;;;;4984960;28;20886;-60
2021/04/07 11:32:35;;;;;;;4.23;2.50;;;6.70;99.90;;;;;;4983161;28;20846;-61
2021/04/07 11:35:14;;;;;;;3.30;2.87;;;6.60;99.90;;;;;;4984472;28;21600;-60
2021/04/07 11:37:53;;;;;;;3.10;2.70;;;6.60;99.90;;;;;;4985141;28;21199;-61
2021/04/07 11:40:35;;;;;;;3.77;2.90;;;6.70;99.90;;;;;;4991417;28;20724;-60
2021/04/07 11:45:31;;;;;;;3.80;2.80;;;6.70;99.90;;;;;;4994786;28;20669;-61
2021/04/07 11:47:56;;;;;;;3.40;2.50;;;6.70;99.90;;;;;;4983238;28;20633;-60
2021/04/07 11:50:22;;;;;;;4.53;3.20;;;6.60;99.90;;;;;;4979915;28;22020;-61
2021/04/07 11:52:48;;;;;;;4.60;3.53;;;6.70;99.90;;;;;;4983005;28;20668;-64
2021/04/07 11:55:14;;;;;;;3.63;2.90;;;6.70;99.90;;;;;;4983729;28;20776;-64
2021/04/07 11:57:39;;;;;;;3.20;2.90;;;6.60;99.90;;;;;;4998608;28;20660;-65
2021/04/07 12:00:08;;;;;;;4.23;3.40;;;6.60;99.90;;;;;;4991986;28;20694;-64
2021/04/07 12:02:34;;;;;;;5.90;3.73;;;6.70;99.90;;;;;;4996777;28;20270;-64
2021/04/07 12:05:00;;;;;;;4.20;3.80;;;6.70;99.90;;;;;;5025619;28;20631;-64
2021/04/07 12:07:26;;;;;;;4.73;4.10;;;6.60;99.90;;;;;;4994542;28;20622;-64
2021/04/07 12:09:51;;;;;;;4.80;3.90;;;6.60;99.90;;;;;;4997796;28;21235;-65
2021/04/07 12:12:17;;;;;;;4.33;3.70;;;6.60;99.90;;;;;;4990958;28;20314;-64
2021/04/07 12:14:42;;;;;;;5.50;4.20;;;6.60;99.90;;;;;;5012410;28;20188;-64
2021/04/07 12:17:08;;;;;;;4.17;3.77;;;6.60;99.90;;;;;;4996332;28;20398;-64
2021/04/07 12:19:34;;;;;;;5.87;3.43;;;6.80;99.90;;;;;;4989199;28;20300;-64
2021/04/07 12:22:00;;;;;;;5.57;3.07;;;6.90;99.90;;;;;;4990803;28;20877;-65
2021/04/07 12:24:25;;;;;;;3.63;2.97;;;6.90;99.90;;;;;;4992370;28;20614;-64
2021/04/07 12:26:51;;;;;;;3.30;2.90;;;6.90;99.90;;;;;;4987124;28;20226;-65
2021/04/07 12:29:16;;;;;;;3.13;2.40;;;6.90;99.90;;;;;;4991644;28;20223;-64
2021/04/07 12:31:42;;;;;;;4.93;2.13;;;7.00;99.90;;;;;;4978826;28;20671;-64
2021/04/07 12:34:08;;;;;;;3.97;1.90;;;7.00;99.90;;;;;;4996180;28;21093;-64
2021/04/07 12:36:34;;;;;;;3.60;1.80;;;7.00;99.90;;;;;;4972972;28;20915;-64
2021/04/07 12:39:02;;;;;;;2.60;1.70;;;7.10;99.90;;;;;;5002941;28;20673;-61
2021/04/07 12:41:45;;;;;;;2.90;1.97;;;7.10;99.90;;;;;;4981112;28;20200;-61
2021/04/07 12:44:11;;;;;;;5.37;1.90;;;7.20;99.90;;;;;;4975535;28;21341;-62
2021/04/07 12:46:36;;;;;;;5.67;2.17;;;7.40;99.90;;;;;;4982791;28;20966;-63
2021/04/07 12:49:04;;;;;;;6.47;2.37;;;7.60;99.90;;;;;;4983104;28;20273;-61
2021/04/07 12:51:30;;;;;;;8.40;1.90;;;7.60;99.90;;;;;;4992127;28;20187;-62
2021/04/07 12:53:56;;;;;;;3.90;2.00;;;7.70;99.90;;;;;;4990007;28;20598;-60
2021/04/07 12:56:22;;;;;;;9.50;2.13;;;7.90;99.90;;;;;;4979454;28;20428;-60
2021/04/07 12:58:49;;;;;;;7.37;2.20;;;8.00;99.90;;;;;;4988618;28;20629;-64
2021/04/07 13:01:16;;;;;;;5.70;2.50;;;8.10;99.90;;;;;;4995639;28;20216;-64
2021/04/07 13:03:41;;;;;;;9.10;2.63;;;8.00;99.90;;;;;;4965938;28;22447;-64
2021/04/07 13:06:07;;;;;;;9.10;2.37;;;8.00;99.90;;;;;;4967261;28;20638;-65
2021/04/07 13:08:33;;;;;;;5.30;3.00;;;7.80;99.90;;;;;;4963086;28;20197;-63
2021/04/07 13:10:59;;;;;;;6.83;2.17;;;7.80;99.90;;;;;;4960763;28;21233;-63
2021/04/07 13:13:25;;;;;;;5.17;3.23;;;7.70;99.90;;;;;;4973434;28;20670;-65
2021/04/07 13:15:51;;;;;;;5.60;1.87;;;7.60;99.90;;;;;;4993826;28;20203;-65
2021/04/07 13:18:18;;;;;;;4.90;1.90;;;7.60;99.90;;;;;;4992485;28;20323;-64
2021/04/07 13:20:43;;;;;;;7.87;1.90;;;7.60;99.90;;;;;;5007497;28;20208;-63
2021/04/07 13:23:09;;;;;;;7.00;2.20;;;7.50;99.90;;;;;;5002355;28;20639;-69